sensor_id;sensor_type;location;lat;lon;timestamp;temperature;humidity
62555;DHT22;48610;52.144;8.624;2023-06-22T00:00:19;20.00;99.90
62555;DHT22;48610;52.144;8.624;2023-06-22T00:27:53;19.90;99.90
62555;DHT22;48610;52.144;8.624;2023-06-22T00:31:44;19.80;99.90
62555;DHT22;48610;52.144;8.624;2023-06-22T01:31:38;19.80;99.90
62555;DHT22;48610;52.144;8.624;2023-06-22T01:39:09;19.90;99.90
62555;DHT22;48610;52.144;8.624;2023-06-22T01:50:44;19.90;99.90
62555;DHT22;48610;52.144;8.624;2023-06-22T01:58:53;19.80;99.90
62555;DHT22;48610;52.144;8.624;2023-06-22T02:06:02;19.70;99.90
62555;DHT22;48610;52.144;8.624;2023-06-22T02:18:23;19.70;99.90
62555;DHT22;48610;52.144;8.624;2023-06-22T02:29:37;19.70;99.90
62555;DHT22;48610;52.144;8.624;2023-06-22T02:45:33;19.40;99.90
62555;DHT22;48610;52.144;8.624;2023-06-22T02:49:43;19.30;99.90
62555;DHT22;48610;52.144;8.624;2023-06-22T02:53:02;19.20;99.90
62555;DHT22;48610;52.144;8.624;2023-06-22T02:57:09;19.30;99.90
62555;DHT22;48610;52.144;8.624;2023-06-22T03:01:48;19.20;99.90
62555;DHT22;48610;52.144;8.624;2023-06-22T03:12:33;19.00;99.90
62555;DHT22;48610;52.144;8.624;2023-06-22T03:27:18;18.60;99.90
62555;DHT22;48610;52.144;8.624;2023-06-22T03:35:08;18.70;99.90
62555;DHT22;48610;52.144;8.624;2023-06-22T03:42:42;19.00;99.90
62555;DHT22;48610;52.144;8.624;2023-06-22T03:46:05;18.90;99.90
62555;DHT22;48610;52.144;8.624;2023-06-22T03:53:23;19.00;99.90
62555;DHT22;48610;52.144;8.624;2023-06-22T03:57:00;19.10;99.90
62555;DHT22;48610;52.144;8.624;2023-06-22T04:00:39;19.10;99.90
62555;DHT22;48610;52.144;8.624;2023-06-22T04:04:13;19.00;99.90
62555;DHT22;48610;52.144;8.624;2023-06-22T04:27:26;19.30;99.90
62555;DHT22;48610;52.144;8.624;2023-06-22T04:31:38;19.40;99.90
62555;DHT22;48610;52.144;8.624;2023-06-22T04:39:17;19.50;99.90
62555;DHT22;48610;52.144;8.624;2023-06-22T04:46:53;19.70;99.90
62555;DHT22;48610;52.144;8.624;2023-06-22T04:50:06;19.80;99.90
62555;DHT22;48610;52.144;8.624;2023-06-22T04:53:07;19.70;99.90
62555;DHT22;48610;52.144;8.624;2023-06-22T04:56:10;19.70;99.90
62555;DHT22;48610;52.144;8.624;2023-06-22T04:59:15;19.70;99.90
62555;DHT22;48610;52.144;8.624;2023-06-22T05:02:15;19.50;99.90
62555;DHT22;48610;52.144;8.624;2023-06-22T05:05:16;19.60;99.90
62555;DHT22;48610;52.144;8.624;2023-06-22T05:08:19;19.80;99.90
62555;DHT22;48610;52.144;8.624;2023-06-22T05:11:20;19.90;99.90
62555;DHT22;48610;52.144;8.624;2023-06-22T05:14:21;20.00;99.90
62555;DHT22;48610;52.144;8.624;2023-06-22T05:17:24;20.10;99.90
62555;DHT22;48610;52.144;8.624;2023-06-22T05:20:25;20.00;99.90
62555;DHT22;48610;52.144;8.624;2023-06-22T05:23:29;20.00;99.90
62555;DHT22;48610;52.144;8.624;2023-06-22T05:26:30;20.20;99.90
62555;DHT22;48610;52.144;8.624;2023-06-22T05:29:31;20.30;99.90
62555;DHT22;48610;52.144;8.624;2023-06-22T05:32:32;20.20;99.90
62555;DHT22;48610;52.144;8.624;2023-06-22T05:35:35;20.40;99.90
62555;DHT22;48610;52.144;8.624;2023-06-22T05:38:36;20.50;99.90
62555;DHT22;48610;52.144;8.624;2023-06-22T05:41:40;20.50;99.90
62555;DHT22;48610;52.144;8.624;2023-06-22T05:44:41;20.60;99.90
62555;DHT22;48610;52.144;8.624;2023-06-22T05:47:41;20.60;99.90
62555;DHT22;48610;52.144;8.624;2023-06-22T05:50:42;20.80;99.90
62555;DHT22;48610;52.144;8.624;2023-06-22T05:53:45;20.70;99.90
62555;DHT22;48610;52.144;8.624;2023-06-22T05:56:49;20.80;99.90
62555;DHT22;48610;52.144;8.624;2023-06-22T05:59:53;20.80;99.90
62555;DHT22;48610;52.144;8.624;2023-06-22T06:02:57;20.60;99.90
62555;DHT22;48610;52.144;8.624;2023-06-22T06:06:03;20.60;99.90
62555;DHT22;48610;52.144;8.624;2023-06-22T06:09:04;20.80;99.90
62555;DHT22;48610;52.144;8.624;2023-06-22T06:12:05;20.90;99.90
62555;DHT22;48610;52.144;8.624;2023-06-22T06:15:09;21.00;99.90
62555;DHT22;48610;52.144;8.624;2023-06-22T06:18:10;21.10;99.90
62555;DHT22;48610;52.144;8.624;2023-06-22T06:21:10;21.40;99.90
62555;DHT22;48610;52.144;8.624;2023-06-22T06:24:11;21.60;99.90
62555;DHT22;48610;52.144;8.624;2023-06-22T06:27:12;21.60;99.90
62555;DHT22;48610;52.144;8.624;2023-06-22T06:30:14;21.60;99.90
62555;DHT22;48610;52.144;8.624;2023-06-22T06:33:18;21.40;99.90
62555;DHT22;48610;52.144;8.624;2023-06-22T06:36:19;21.60;99.90
62555;DHT22;48610;52.144;8.624;2023-06-22T06:39:20;21.40;99.90
62555;DHT22;48610;52.144;8.624;2023-06-22T06:42:23;21.50;99.90
62555;DHT22;48610;52.144;8.624;2023-06-22T06:45:25;21.60;99.90
62555;DHT22;48610;52.144;8.624;2023-06-22T06:48:33;21.60;99.90
62555;DHT22;48610;52.144;8.624;2023-06-22T06:51:36;21.70;99.90
62555;DHT22;48610;52.144;8.624;2023-06-22T06:54:40;21.80;99.90
62555;DHT22;48610;52.144;8.624;2023-06-22T06:57:44;21.90;99.90
62555;DHT22;48610;52.144;8.624;2023-06-22T07:00:49;21.80;99.90
62555;DHT22;48610;52.144;8.624;2023-06-22T07:03:49;21.80;99.90
62555;DHT22;48610;52.144;8.624;2023-06-22T07:06:50;21.80;99.90
62555;DHT22;48610;52.144;8.624;2023-06-22T07:09:53;21.80;99.90
62555;DHT22;48610;52.144;8.624;2023-06-22T07:12:53;22.10;99.90
62555;DHT22;48610;52.144;8.624;2023-06-22T07:15:57;22.20;99.90
62555;DHT22;48610;52.144;8.624;2023-06-22T07:18:57;22.10;99.90
62555;DHT22;48610;52.144;8.624;2023-06-22T07:21:58;22.30;99.90
62555;DHT22;48610;52.144;8.624;2023-06-22T07:24:58;22.40;99.90
62555;DHT22;48610;52.144;8.624;2023-06-22T07:28:06;22.50;99.90
62555;DHT22;48610;52.144;8.624;2023-06-22T07:31:12;22.50;99.90
62555;DHT22;48610;52.144;8.624;2023-06-22T07:34:15;22.70;99.90
62555;DHT22;48610;52.144;8.624;2023-06-22T07:37:15;22.90;99.90
62555;DHT22;48610;52.144;8.624;2023-06-22T07:40:16;22.80;99.90
62555;DHT22;48610;52.144;8.624;2023-06-22T07:43:17;22.70;99.90
62555;DHT22;48610;52.144;8.624;2023-06-22T07:46:17;22.70;99.90
62555;DHT22;48610;52.144;8.624;2023-06-22T07:49:18;22.60;99.90
62555;DHT22;48610;52.144;8.624;2023-06-22T07:52:21;22.60;99.90
62555;DHT22;48610;52.144;8.624;2023-06-22T07:55:22;22.70;99.90
62555;DHT22;48610;52.144;8.624;2023-06-22T07:58:22;22.60;99.90
62555;DHT22;48610;52.144;8.624;2023-06-22T08:01:28;22.70;99.90
62555;DHT22;48610;52.144;8.624;2023-06-22T08:04:29;22.70;99.90
62555;DHT22;48610;52.144;8.624;2023-06-22T08:07:31;22.60;99.90
62555;DHT22;48610;52.144;8.624;2023-06-22T08:10:35;22.70;99.90
62555;DHT22;48610;52.144;8.624;2023-06-22T08:13:36;22.70;99.90
62555;DHT22;48610;52.144;8.624;2023-06-22T08:16:40;22.80;99.90
62555;DHT22;48610;52.144;8.624;2023-06-22T08:19:41;22.80;99.90
62555;DHT22;48610;52.144;8.624;2023-06-22T08:22:42;22.80;99.90
62555;DHT22;48610;52.144;8.624;2023-06-22T08:25:43;22.90;99.90
62555;DHT22;48610;52.144;8.624;2023-06-22T08:28:44;22.90;99.90
62555;DHT22;48610;52.144;8.624;2023-06-22T08:31:45;22.90;99.90
62555;DHT22;48610;52.144;8.624;2023-06-22T08:34:45;22.90;99.90
62555;DHT22;48610;52.144;8.624;2023-06-22T08:37:46;23.00;99.90
62555;DHT22;48610;52.144;8.624;2023-06-22T08:40:53;23.10;99.90
62555;DHT22;48610;52.144;8.624;2023-06-22T08:43:53;23.10;99.90
62555;DHT22;48610;52.144;8.624;2023-06-22T08:46:54;23.30;99.90
62555;DHT22;48610;52.144;8.624;2023-06-22T08:49:54;23.40;99.90
62555;DHT22;48610;52.144;8.624;2023-06-22T08:52:57;23.60;99.90
62555;DHT22;48610;52.144;8.624;2023-06-22T08:55:58;23.50;99.90
62555;DHT22;48610;52.144;8.624;2023-06-22T08:59:01;23.60;99.90
62555;DHT22;48610;52.144;8.624;2023-06-22T09:02:01;23.50;99.90
62555;DHT22;48610;52.144;8.624;2023-06-22T09:05:03;23.60;99.90
62555;DHT22;48610;52.144;8.624;2023-06-22T09:08:07;23.90;99.90
62555;DHT22;48610;52.144;8.624;2023-06-22T09:11:07;23.80;99.90
62555;DHT22;48610;52.144;8.624;2023-06-22T09:14:10;23.80;99.90
62555;DHT22;48610;52.144;8.624;2023-06-22T09:17:11;23.90;99.90
62555;DHT22;48610;52.144;8.624;2023-06-22T09:20:12;24.20;99.90
62555;DHT22;48610;52.144;8.624;2023-06-22T09:23:13;24.10;99.90
62555;DHT22;48610;52.144;8.624;2023-06-22T09:26:13;24.10;99.90
62555;DHT22;48610;52.144;8.624;2023-06-22T09:29:14;24.10;99.90
62555;DHT22;48610;52.144;8.624;2023-06-22T09:32:15;24.30;99.90
62555;DHT22;48610;52.144;8.624;2023-06-22T09:35:18;24.70;99.90
62555;DHT22;48610;52.144;8.624;2023-06-22T09:38:18;24.70;99.90
62555;DHT22;48610;52.144;8.624;2023-06-22T09:41:22;24.50;99.90
62555;DHT22;48610;52.144;8.624;2023-06-22T09:44:23;24.60;99.90
62555;DHT22;48610;52.144;8.624;2023-06-22T09:47:26;24.70;99.90
62555;DHT22;48610;52.144;8.624;2023-06-22T09:50:27;24.80;99.90
62555;DHT22;48610;52.144;8.624;2023-06-22T09:53:27;24.80;99.90
62555;DHT22;48610;52.144;8.624;2023-06-22T09:56:28;24.90;99.90
62555;DHT22;48610;52.144;8.624;2023-06-22T09:59:30;24.80;99.90
62555;DHT22;48610;52.144;8.624;2023-06-22T10:02:31;24.90;99.90
62555;DHT22;48610;52.144;8.624;2023-06-22T10:05:32;25.20;99.90
62555;DHT22;48610;52.144;8.624;2023-06-22T10:08:35;25.20;99.90
62555;DHT22;48610;52.144;8.624;2023-06-22T10:11:36;24.90;99.90
62555;DHT22;48610;52.144;8.624;2023-06-22T10:14:37;24.80;99.90
62555;DHT22;48610;52.144;8.624;2023-06-22T10:17:40;25.00;99.90
62555;DHT22;48610;52.144;8.624;2023-06-22T10:20:40;25.20;99.90
62555;DHT22;48610;52.144;8.624;2023-06-22T10:23:41;25.20;99.90
62555;DHT22;48610;52.144;8.624;2023-06-22T10:26:44;25.10;99.90
62555;DHT22;48610;52.144;8.624;2023-06-22T10:29:45;25.10;99.90
62555;DHT22;48610;52.144;8.624;2023-06-22T10:32:45;25.00;99.90
62555;DHT22;48610;52.144;8.624;2023-06-22T10:35:48;25.00;99.90
62555;DHT22;48610;52.144;8.624;2023-06-22T10:38:49;25.00;99.90
62555;DHT22;48610;52.144;8.624;2023-06-22T10:41:50;24.90;99.90
62555;DHT22;48610;52.144;8.624;2023-06-22T10:44:50;25.00;99.90
62555;DHT22;48610;52.144;8.624;2023-06-22T10:47:51;25.50;99.90
62555;DHT22;48610;52.144;8.624;2023-06-22T10:50:52;26.00;99.90
62555;DHT22;48610;52.144;8.624;2023-06-22T10:53:53;26.00;99.90
62555;DHT22;48610;52.144;8.624;2023-06-22T10:56:55;25.60;99.90
62555;DHT22;48610;52.144;8.624;2023-06-22T10:59:56;25.70;99.90
62555;DHT22;48610;52.144;8.624;2023-06-22T11:02:56;25.70;99.90
62555;DHT22;48610;52.144;8.624;2023-06-22T11:05:58;25.80;99.90
62555;DHT22;48610;52.144;8.624;2023-06-22T11:09:02;25.80;99.90
62555;DHT22;48610;52.144;8.624;2023-06-22T11:20:18;27.00;99.90
62555;DHT22;48610;52.144;8.624;2023-06-22T11:23:21;27.00;99.90
62555;DHT22;48610;52.144;8.624;2023-06-22T11:26:22;26.80;99.90
62555;DHT22;48610;52.144;8.624;2023-06-22T11:29:25;26.70;99.90
62555;DHT22;48610;52.144;8.624;2023-06-22T11:32:26;26.80;99.90
62555;DHT22;48610;52.144;8.624;2023-06-22T11:35:29;27.00;99.90
62555;DHT22;48610;52.144;8.624;2023-06-22T11:38:32;26.90;99.90
62555;DHT22;48610;52.144;8.624;2023-06-22T11:41:36;26.70;99.90
62555;DHT22;48610;52.144;8.624;2023-06-22T11:44:42;26.90;99.90
62555;DHT22;48610;52.144;8.624;2023-06-22T11:47:44;26.80;99.90
62555;DHT22;48610;52.144;8.624;2023-06-22T11:50:47;26.90;99.90
62555;DHT22;48610;52.144;8.624;2023-06-22T11:53:58;26.90;99.90
62555;DHT22;48610;52.144;8.624;2023-06-22T11:56:59;26.70;99.90
62555;DHT22;48610;52.144;8.624;2023-06-22T11:59:59;26.70;99.90
62555;DHT22;48610;52.144;8.624;2023-06-22T12:03:00;26.80;99.90
62555;DHT22;48610;52.144;8.624;2023-06-22T12:06:01;26.60;99.90
62555;DHT22;48610;52.144;8.624;2023-06-22T12:09:06;26.50;99.90
62555;DHT22;48610;52.144;8.624;2023-06-22T12:12:08;26.40;99.90
62555;DHT22;48610;52.144;8.624;2023-06-22T12:15:09;26.40;99.90
62555;DHT22;48610;52.144;8.624;2023-06-22T12:18:13;26.30;99.90
62555;DHT22;48610;52.144;8.624;2023-06-22T12:21:17;26.40;99.90
62555;DHT22;48610;52.144;8.624;2023-06-22T12:24:19;26.60;99.90
62555;DHT22;48610;52.144;8.624;2023-06-22T12:37:51;26.20;99.90
62555;DHT22;48610;52.144;8.624;2023-06-22T12:41:24;26.00;99.90
62555;DHT22;48610;52.144;8.624;2023-06-22T12:44:35;25.80;99.90
62555;DHT22;48610;52.144;8.624;2023-06-22T12:47:49;25.80;99.90
62555;DHT22;48610;52.144;8.624;2023-06-22T12:51:00;25.70;99.90
62555;DHT22;48610;52.144;8.624;2023-06-22T12:54:19;25.60;99.90
62555;DHT22;48610;52.144;8.624;2023-06-22T12:57:44;25.20;99.90
62555;DHT22;48610;52.144;8.624;2023-06-22T13:00:53;25.10;99.90
62555;DHT22;48610;52.144;8.624;2023-06-22T13:04:27;24.80;99.90
62555;DHT22;48610;52.144;8.624;2023-06-22T13:07:36;24.70;99.90
62555;DHT22;48610;52.144;8.624;2023-06-22T13:11:00;24.30;99.90
62555;DHT22;48610;52.144;8.624;2023-06-22T13:14:06;24.30;99.90
62555;DHT22;48610;52.144;8.624;2023-06-22T13:17:10;24.20;99.90
62555;DHT22;48610;52.144;8.624;2023-06-22T13:20:19;24.10;99.90
62555;DHT22;48610;52.144;8.624;2023-06-22T13:23:31;24.00;99.90
62555;DHT22;48610;52.144;8.624;2023-06-22T13:26:53;23.90;99.90
62555;DHT22;48610;52.144;8.624;2023-06-22T13:30:10;23.60;99.90
62555;DHT22;48610;52.144;8.624;2023-06-22T13:33:21;23.60;99.90
62555;DHT22;48610;52.144;8.624;2023-06-22T13:36:21;23.50;99.90
62555;DHT22;48610;52.144;8.624;2023-06-22T13:39:28;23.50;99.90
62555;DHT22;48610;52.144;8.624;2023-06-22T13:42:32;23.50;99.90
62555;DHT22;48610;52.144;8.624;2023-06-22T13:45:45;23.60;99.90
62555;DHT22;48610;52.144;8.624;2023-06-22T13:48:59;23.50;99.90
62555;DHT22;48610;52.144;8.624;2023-06-22T13:51:59;23.20;99.90
62555;DHT22;48610;52.144;8.624;2023-06-22T13:55:00;23.10;99.90
62555;DHT22;48610;52.144;8.624;2023-06-22T13:58:01;23.30;99.90
62555;DHT22;48610;52.144;8.624;2023-06-22T14:01:01;23.30;99.90
62555;DHT22;48610;52.144;8.624;2023-06-22T14:04:02;23.00;99.90
62555;DHT22;48610;52.144;8.624;2023-06-22T14:07:02;22.90;99.90
62555;DHT22;48610;52.144;8.624;2023-06-22T14:10:04;22.80;99.90
62555;DHT22;48610;52.144;8.624;2023-06-22T14:13:04;22.70;99.90
62555;DHT22;48610;52.144;8.624;2023-06-22T14:16:07;22.70;99.90
62555;DHT22;48610;52.144;8.624;2023-06-22T14:19:07;22.50;99.90
62555;DHT22;48610;52.144;8.624;2023-06-22T14:22:08;22.40;99.90
62555;DHT22;48610;52.144;8.624;2023-06-22T14:25:09;22.20;99.90
62555;DHT22;48610;52.144;8.624;2023-06-22T14:28:31;22.00;99.90
62555;DHT22;48610;52.144;8.624;2023-06-22T14:31:39;21.80;99.90
62555;DHT22;48610;52.144;8.624;2023-06-22T14:34:45;21.80;99.90
62555;DHT22;48610;52.144;8.624;2023-06-22T14:37:46;21.80;99.90
62555;DHT22;48610;52.144;8.624;2023-06-22T14:40:48;21.50;99.90
62555;DHT22;48610;52.144;8.624;2023-06-22T14:43:50;21.50;99.90
62555;DHT22;48610;52.144;8.624;2023-06-22T14:46:51;21.50;99.90
62555;DHT22;48610;52.144;8.624;2023-06-22T14:49:51;21.30;99.90
62555;DHT22;48610;52.144;8.624;2023-06-22T14:52:52;21.10;99.90
62555;DHT22;48610;52.144;8.624;2023-06-22T14:55:54;21.00;99.90
62555;DHT22;48610;52.144;8.624;2023-06-22T14:58:55;21.10;99.90
62555;DHT22;48610;52.144;8.624;2023-06-22T15:01:58;21.00;99.90
62555;DHT22;48610;52.144;8.624;2023-06-22T15:05:02;21.10;99.90
62555;DHT22;48610;52.144;8.624;2023-06-22T15:11:59;21.20;99.90
62555;DHT22;48610;52.144;8.624;2023-06-22T15:15:01;21.10;99.90
62555;DHT22;48610;52.144;8.624;2023-06-22T15:18:02;21.20;99.90
62555;DHT22;48610;52.144;8.624;2023-06-22T15:21:03;21.10;99.90
62555;DHT22;48610;52.144;8.624;2023-06-22T15:24:04;21.30;99.90
62555;DHT22;48610;52.144;8.624;2023-06-22T15:27:05;21.40;99.90
62555;DHT22;48610;52.144;8.624;2023-06-22T15:30:06;21.70;99.90
62555;DHT22;48610;52.144;8.624;2023-06-22T15:33:07;21.80;99.90
62555;DHT22;48610;52.144;8.624;2023-06-22T15:36:08;21.70;99.90
62555;DHT22;48610;52.144;8.624;2023-06-22T15:39:09;21.80;99.90
62555;DHT22;48610;52.144;8.624;2023-06-22T15:42:09;21.70;99.90
62555;DHT22;48610;52.144;8.624;2023-06-22T15:45:10;22.00;99.90
62555;DHT22;48610;52.144;8.624;2023-06-22T15:48:10;22.00;99.90
62555;DHT22;48610;52.144;8.624;2023-06-22T15:51:11;21.90;99.90
62555;DHT22;48610;52.144;8.624;2023-06-22T15:54:11;22.00;99.90
62555;DHT22;48610;52.144;8.624;2023-06-22T15:57:12;22.10;99.90
62555;DHT22;48610;52.144;8.624;2023-06-22T16:00:15;22.20;99.90
62555;DHT22;48610;52.144;8.624;2023-06-22T16:03:17;22.10;99.90
62555;DHT22;48610;52.144;8.624;2023-06-22T16:06:18;22.10;99.90
62555;DHT22;48610;52.144;8.624;2023-06-22T16:09:18;22.30;99.90
62555;DHT22;48610;52.144;8.624;2023-06-22T16:16:27;22.10;99.90
62555;DHT22;48610;52.144;8.624;2023-06-22T16:19:27;22.10;99.90
62555;DHT22;48610;52.144;8.624;2023-06-22T16:22:28;22.10;99.90
62555;DHT22;48610;52.144;8.624;2023-06-22T16:25:52;22.00;99.90
62555;DHT22;48610;52.144;8.624;2023-06-22T16:28:53;22.10;99.90
62555;DHT22;48610;52.144;8.624;2023-06-22T16:31:54;22.10;99.90
62555;DHT22;48610;52.144;8.624;2023-06-22T16:34:54;22.10;99.90
62555;DHT22;48610;52.144;8.624;2023-06-22T16:37:55;22.00;99.90
62555;DHT22;48610;52.144;8.624;2023-06-22T16:40:56;22.00;99.90
62555;DHT22;48610;52.144;8.624;2023-06-22T16:43:56;22.00;99.90
62555;DHT22;48610;52.144;8.624;2023-06-22T16:46:58;21.90;99.90
62555;DHT22;48610;52.144;8.624;2023-06-22T16:50:00;21.90;99.90
62555;DHT22;48610;52.144;8.624;2023-06-22T16:53:00;21.80;99.90
62555;DHT22;48610;52.144;8.624;2023-06-22T16:56:01;21.80;99.90
62555;DHT22;48610;52.144;8.624;2023-06-22T16:59:02;21.70;99.90
62555;DHT22;48610;52.144;8.624;2023-06-22T17:02:03;21.70;99.90
62555;DHT22;48610;52.144;8.624;2023-06-22T17:05:05;21.70;99.90
62555;DHT22;48610;52.144;8.624;2023-06-22T17:08:08;21.70;99.90
62555;DHT22;48610;52.144;8.624;2023-06-22T17:11:13;21.70;99.90
62555;DHT22;48610;52.144;8.624;2023-06-22T17:14:14;21.70;99.90
62555;DHT22;48610;52.144;8.624;2023-06-22T17:17:18;21.80;99.90
62555;DHT22;48610;52.144;8.624;2023-06-22T17:20:19;21.90;99.90
62555;DHT22;48610;52.144;8.624;2023-06-22T17:23:19;21.90;99.90
62555;DHT22;48610;52.144;8.624;2023-06-22T17:26:21;21.90;99.90
62555;DHT22;48610;52.144;8.624;2023-06-22T17:29:31;21.80;99.90
62555;DHT22;48610;52.144;8.624;2023-06-22T17:32:32;21.80;99.90
62555;DHT22;48610;52.144;8.624;2023-06-22T17:35:32;21.60;99.90
62555;DHT22;48610;52.144;8.624;2023-06-22T17:38:36;21.50;99.90
62555;DHT22;48610;52.144;8.624;2023-06-22T17:41:40;21.40;99.90
62555;DHT22;48610;52.144;8.624;2023-06-22T17:44:42;21.40;99.90
62555;DHT22;48610;52.144;8.624;2023-06-22T17:47:47;21.40;99.90
62555;DHT22;48610;52.144;8.624;2023-06-22T17:50:48;21.20;99.90
62555;DHT22;48610;52.144;8.624;2023-06-22T17:53:49;21.30;99.90
62555;DHT22;48610;52.144;8.624;2023-06-22T17:56:52;21.30;99.90
62555;DHT22;48610;52.144;8.624;2023-06-22T17:59:53;21.10;99.90
62555;DHT22;48610;52.144;8.624;2023-06-22T18:02:55;20.90;99.90
62555;DHT22;48610;52.144;8.624;2023-06-22T18:05:55;20.90;99.90
62555;DHT22;48610;52.144;8.624;2023-06-22T18:08:58;20.80;99.90
62555;DHT22;48610;52.144;8.624;2023-06-22T18:12:03;20.90;99.90
62555;DHT22;48610;52.144;8.624;2023-06-22T18:15:06;20.90;99.90
62555;DHT22;48610;52.144;8.624;2023-06-22T18:18:08;20.90;99.90
62555;DHT22;48610;52.144;8.624;2023-06-22T18:21:08;20.90;99.90
62555;DHT22;48610;52.144;8.624;2023-06-22T18:24:09;20.90;99.90
62555;DHT22;48610;52.144;8.624;2023-06-22T18:27:15;20.90;99.90
62555;DHT22;48610;52.144;8.624;2023-06-22T18:30:20;20.80;99.90
62555;DHT22;48610;52.144;8.624;2023-06-22T18:33:21;20.80;99.90
62555;DHT22;48610;52.144;8.624;2023-06-22T18:36:51;20.90;99.90
62555;DHT22;48610;52.144;8.624;2023-06-22T18:39:54;20.70;99.90
62555;DHT22;48610;52.144;8.624;2023-06-22T18:43:00;20.70;99.90
62555;DHT22;48610;52.144;8.624;2023-06-22T18:46:35;20.60;99.90
62555;DHT22;48610;52.144;8.624;2023-06-22T18:52:39;20.70;99.90
62555;DHT22;48610;52.144;8.624;2023-06-22T18:55:44;20.60;99.90
62555;DHT22;48610;52.144;8.624;2023-06-22T18:58:56;20.60;99.90
62555;DHT22;48610;52.144;8.624;2023-06-22T19:02:00;20.60;99.90
62555;DHT22;48610;52.144;8.624;2023-06-22T19:08:14;20.60;99.90
62555;DHT22;48610;52.144;8.624;2023-06-22T19:11:15;20.60;99.90
62555;DHT22;48610;52.144;8.624;2023-06-22T19:14:22;20.50;99.90
62555;DHT22;48610;52.144;8.624;2023-06-22T19:17:23;20.60;99.90
62555;DHT22;48610;52.144;8.624;2023-06-22T19:20:31;20.50;99.90
62555;DHT22;48610;52.144;8.624;2023-06-22T19:23:38;20.50;99.90
62555;DHT22;48610;52.144;8.624;2023-06-22T19:26:39;20.40;99.90
62555;DHT22;48610;52.144;8.624;2023-06-22T19:29:52;20.50;99.90
62555;DHT22;48610;52.144;8.624;2023-06-22T19:32:56;20.50;99.90
62555;DHT22;48610;52.144;8.624;2023-06-22T19:35:59;20.50;99.90
62555;DHT22;48610;52.144;8.624;2023-06-22T19:39:01;20.40;99.90
62555;DHT22;48610;52.144;8.624;2023-06-22T19:42:02;20.40;99.90
62555;DHT22;48610;52.144;8.624;2023-06-22T19:45:03;20.40;99.90
62555;DHT22;48610;52.144;8.624;2023-06-22T19:48:06;20.40;99.90
62555;DHT22;48610;52.144;8.624;2023-06-22T19:51:07;20.30;99.90
62555;DHT22;48610;52.144;8.624;2023-06-22T19:54:09;20.20;99.90
62555;DHT22;48610;52.144;8.624;2023-06-22T19:57:10;20.20;99.90
62555;DHT22;48610;52.144;8.624;2023-06-22T20:00:11;20.00;99.90
62555;DHT22;48610;52.144;8.624;2023-06-22T20:03:16;20.00;99.90
62555;DHT22;48610;52.144;8.624;2023-06-22T20:06:17;20.00;99.90
62555;DHT22;48610;52.144;8.624;2023-06-22T20:09:18;20.00;99.90
62555;DHT22;48610;52.144;8.624;2023-06-22T20:12:26;20.00;99.90
62555;DHT22;48610;52.144;8.624;2023-06-22T20:15:29;20.00;99.90
62555;DHT22;48610;52.144;8.624;2023-06-22T20:18:33;20.10;99.90
62555;DHT22;48610;52.144;8.624;2023-06-22T20:21:34;20.10;99.90
62555;DHT22;48610;52.144;8.624;2023-06-22T20:24:34;20.00;99.90
62555;DHT22;48610;52.144;8.624;2023-06-22T20:27:42;19.90;99.90
62555;DHT22;48610;52.144;8.624;2023-06-22T20:31:03;19.90;99.90
62555;DHT22;48610;52.144;8.624;2023-06-22T20:34:05;19.80;99.90
62555;DHT22;48610;52.144;8.624;2023-06-22T20:37:05;19.90;99.90
62555;DHT22;48610;52.144;8.624;2023-06-22T20:40:09;20.10;99.90
62555;DHT22;48610;52.144;8.624;2023-06-22T20:43:13;20.10;99.90
62555;DHT22;48610;52.144;8.624;2023-06-22T20:46:14;20.10;99.90
62555;DHT22;48610;52.144;8.624;2023-06-22T20:49:14;20.00;99.90
62555;DHT22;48610;52.144;8.624;2023-06-22T20:52:17;20.10;99.90
62555;DHT22;48610;52.144;8.624;2023-06-22T20:55:18;20.20;99.90
62555;DHT22;48610;52.144;8.624;2023-06-22T20:58:19;20.10;99.90
62555;DHT22;48610;52.144;8.624;2023-06-22T21:01:20;20.10;99.90
62555;DHT22;48610;52.144;8.624;2023-06-22T21:04:20;20.10;99.90
62555;DHT22;48610;52.144;8.624;2023-06-22T21:07:21;20.10;99.90
62555;DHT22;48610;52.144;8.624;2023-06-22T21:10:22;20.20;99.90
62555;DHT22;48610;52.144;8.624;2023-06-22T21:13:23;20.10;99.90
62555;DHT22;48610;52.144;8.624;2023-06-22T21:16:23;20.20;99.90
62555;DHT22;48610;52.144;8.624;2023-06-22T21:19:24;20.20;99.90
62555;DHT22;48610;52.144;8.624;2023-06-22T21:22:25;20.20;99.90
62555;DHT22;48610;52.144;8.624;2023-06-22T21:25:25;20.30;99.90
62555;DHT22;48610;52.144;8.624;2023-06-22T21:28:26;20.30;99.90
62555;DHT22;48610;52.144;8.624;2023-06-22T21:31:27;20.10;99.90
62555;DHT22;48610;52.144;8.624;2023-06-22T21:34:27;20.10;99.90
62555;DHT22;48610;52.144;8.624;2023-06-22T21:37:28;20.10;99.90
62555;DHT22;48610;52.144;8.624;2023-06-22T21:40:28;20.00;99.90
62555;DHT22;48610;52.144;8.624;2023-06-22T21:43:29;20.00;99.90
62555;DHT22;48610;52.144;8.624;2023-06-22T21:46:29;19.90;99.90
62555;DHT22;48610;52.144;8.624;2023-06-22T21:49:30;19.90;99.90
62555;DHT22;48610;52.144;8.624;2023-06-22T21:52:30;20.00;99.90
62555;DHT22;48610;52.144;8.624;2023-06-22T21:55:31;19.80;99.90
62555;DHT22;48610;52.144;8.624;2023-06-22T21:58:32;19.80;99.90
62555;DHT22;48610;52.144;8.624;2023-06-22T22:01:32;19.80;99.90
62555;DHT22;48610;52.144;8.624;2023-06-22T22:04:33;19.80;99.90
62555;DHT22;48610;52.144;8.624;2023-06-22T22:07:33;19.80;99.90
62555;DHT22;48610;52.144;8.624;2023-06-22T22:10:34;19.90;99.90
62555;DHT22;48610;52.144;8.624;2023-06-22T22:13:37;19.90;99.90
62555;DHT22;48610;52.144;8.624;2023-06-22T22:16:38;19.70;99.90
62555;DHT22;48610;52.144;8.624;2023-06-22T22:19:39;19.70;99.90
62555;DHT22;48610;52.144;8.624;2023-06-22T22:22:39;19.60;99.90
62555;DHT22;48610;52.144;8.624;2023-06-22T22:25:40;19.80;99.90
62555;DHT22;48610;52.144;8.624;2023-06-22T22:28:40;19.70;99.90
62555;DHT22;48610;52.144;8.624;2023-06-22T22:31:41;19.80;99.90
62555;DHT22;48610;52.144;8.624;2023-06-22T22:34:41;19.70;99.90
62555;DHT22;48610;52.144;8.624;2023-06-22T22:37:42;19.70;99.90
62555;DHT22;48610;52.144;8.624;2023-06-22T22:40:43;19.70;99.90
62555;DHT22;48610;52.144;8.624;2023-06-22T22:43:43;19.70;99.90
62555;DHT22;48610;52.144;8.624;2023-06-22T22:46:44;19.80;99.90
62555;DHT22;48610;52.144;8.624;2023-06-22T22:49:45;19.80;99.90
62555;DHT22;48610;52.144;8.624;2023-06-22T22:52:45;19.70;99.90
62555;DHT22;48610;52.144;8.624;2023-06-22T22:55:46;19.70;99.90
62555;DHT22;48610;52.144;8.624;2023-06-22T22:58:46;19.80;99.90
62555;DHT22;48610;52.144;8.624;2023-06-22T23:01:47;19.70;99.90
62555;DHT22;48610;52.144;8.624;2023-06-22T23:04:54;19.70;99.90
62555;DHT22;48610;52.144;8.624;2023-06-22T23:07:55;19.60;99.90
62555;DHT22;48610;52.144;8.624;2023-06-22T23:10:56;19.60;99.90